createdAt,value
2018-01-06T00:02:25.137Z,100253.56
2018-01-06T00:04:59.148Z,100250.21
2018-01-06T00:07:31.880Z,100249.69
2018-01-06T00:10:04.243Z,100260.11
2018-01-06T00:12:37.517Z,100247.53
2018-01-06T00:15:10.244Z,100251.17
2018-01-06T00:17:42.695Z,100265.16
2018-01-06T00:20:16.090Z,100264.66
2018-01-06T00:22:48.560Z,100265.16
2018-01-06T00:25:21.039Z,100268.80
2018-01-06T00:27:53.538Z,100273.08
2018-01-06T00:30:26.056Z,100273.84
2018-01-06T00:32:59.329Z,100272.95
2018-01-06T00:35:31.664Z,100284.61
2018-01-06T00:38:04.004Z,100289.79
2018-01-06T00:40:36.411Z,100293.77
2018-01-06T00:43:09.020Z,100286.91
2018-01-06T00:45:41.438Z,100288.67
2018-01-06T00:48:14.015Z,100284.41
2018-01-06T00:50:46.520Z,100294.80
2018-01-06T00:53:19.769Z,100283.86
2018-01-06T00:55:52.561Z,100287.84
2018-01-06T00:58:25.131Z,100293.58
2018-01-06T01:00:57.449Z,100295.09
2018-01-06T01:03:30.124Z,100300.48
2018-01-06T01:06:02.613Z,100303.34
2018-01-06T01:08:34.995Z,100301.54
2018-01-06T01:11:07.453Z,100312.36
2018-01-06T01:13:39.832Z,100316.41
2018-01-06T01:16:13.070Z,100308.84
2018-01-06T01:18:45.964Z,100306.42
2018-01-06T01:21:18.410Z,100310.63
2018-01-06T01:23:50.947Z,100315.08
2018-01-06T01:26:23.337Z,100315.66
2018-01-06T01:28:55.948Z,100327.75
2018-01-06T01:31:28.680Z,100323.77
2018-01-06T01:34:01.236Z,100326.78
2018-01-06T01:36:35.309Z,100334.74
2018-01-06T01:39:08.076Z,100335.36
2018-01-06T01:41:41.300Z,100337.06
2018-01-06T01:44:14.758Z,100338.67
2018-01-06T01:46:47.445Z,100343.20
2018-01-06T01:49:19.846Z,100344.45
2018-01-06T01:51:52.434Z,100355.06
2018-01-06T01:54:24.898Z,100358.77
2018-01-06T01:56:57.524Z,100367.23
2018-01-06T01:59:30.768Z,100361.50
2018-01-06T02:02:04.389Z,100358.17
2018-01-06T02:04:37.182Z,100373.31
2018-01-06T02:07:09.600Z,100373.61
2018-01-06T02:09:42.064Z,100379.77
2018-01-06T02:12:15.320Z,100376.03
2018-01-06T02:14:48.057Z,100377.80
2018-01-06T02:17:20.644Z,100378.14
2018-01-06T02:19:53.123Z,100382.13
2018-01-06T02:22:25.589Z,100386.73
2018-01-06T02:24:58.182Z,100391.78
2018-01-06T02:27:30.524Z,100385.19
2018-01-06T02:30:02.958Z,100388.85
2018-01-06T02:32:36.954Z,100382.97
2018-01-06T02:35:09.686Z,100385.63
2018-01-06T02:37:42.177Z,100397.03
2018-01-06T02:40:14.867Z,100396.10
2018-01-06T02:42:47.334Z,100399.04
2018-01-06T02:45:20.189Z,100399.80
2018-01-06T02:47:52.771Z,100403.11
2018-01-06T02:50:26.689Z,100402.34
2018-01-06T02:52:59.388Z,100401.27
2018-01-06T02:55:31.800Z,100411.61
2018-01-06T02:58:04.341Z,100407.30
2018-01-06T03:00:37.616Z,100409.61
2018-01-06T03:03:10.329Z,100405.84
2018-01-06T03:05:42.704Z,100411.98
2018-01-06T03:08:15.066Z,100414.78
2018-01-06T03:10:47.579Z,100414.42
2018-01-06T03:13:20.021Z,100415.97
2018-01-06T03:15:52.523Z,100413.03
2018-01-06T03:18:26.556Z,100409.05
2018-01-06T03:20:59.329Z,100412.75
2018-01-06T03:23:31.722Z,100412.75
2018-01-06T03:26:04.925Z,100419.27
2018-01-06T03:28:37.855Z,100417.30
2018-01-06T03:31:10.540Z,100410.39
2018-01-06T03:33:43.219Z,100412.01
2018-01-06T03:36:15.761Z,100414.52
2018-01-06T03:38:49.638Z,100424.23
2018-01-06T03:41:22.847Z,100429.79
2018-01-06T03:43:55.990Z,100428.82
2018-01-06T03:46:29.293Z,100421.80
2018-01-06T03:49:02.155Z,100416.48
2018-01-06T03:51:34.533Z,100425.48
2018-01-06T03:54:07.129Z,100419.75
2018-01-06T03:56:39.707Z,100426.18
2018-01-06T03:59:12.260Z,100429.54
2018-01-06T04:01:45.017Z,100447.32
2018-01-06T04:04:17.545Z,100434.13
2018-01-06T04:06:49.962Z,100438.33
2018-01-06T04:09:22.568Z,100436.03
2018-01-06T04:11:55.056Z,100441.55
2018-01-06T04:14:27.634Z,100449.16
2018-01-06T04:17:00.893Z,100458.83
2018-01-06T04:19:33.811Z,100456.97
2018-01-06T04:22:07.092Z,100454.39
2018-01-06T04:24:39.840Z,100460.23
2018-01-06T04:27:12.378Z,100455.28
2018-01-06T04:32:17.105Z,100469.12
2018-01-06T04:34:50.229Z,100466.40
2018-01-06T04:37:22.608Z,100470.09
2018-01-06T04:39:55.052Z,100469.73
2018-01-06T04:42:27.712Z,100475.14
2018-01-06T04:45:00.093Z,100478.84
2018-01-06T04:47:34.297Z,100481.02
2018-01-06T04:50:07.176Z,100474.11
2018-01-06T04:52:39.784Z,100472.92
2018-01-06T04:55:12.269Z,100482.59
2018-01-06T04:57:44.808Z,100483.03
2018-01-06T05:00:17.340Z,100483.31
2018-01-06T05:02:50.775Z,100490.63
2018-01-06T05:05:23.603Z,100484.00
2018-01-06T05:07:56.856Z,100492.02
2018-01-06T05:10:29.429Z,100495.25
2018-01-06T05:13:01.977Z,100496.58
2018-01-06T05:15:34.677Z,100499.30
2018-01-06T05:18:07.008Z,100495.25
2018-01-06T05:20:39.380Z,100501.16
2018-01-06T05:23:12.539Z,100510.16
2018-01-06T05:25:45.361Z,100516.38
2018-01-06T05:28:17.843Z,100521.04
2018-01-06T05:30:50.939Z,100519.25
2018-01-06T05:33:23.939Z,100513.52
2018-01-06T05:35:56.788Z,100516.38
2018-01-06T05:38:30.061Z,100516.38
2018-01-06T05:41:03.441Z,100522.14
2018-01-06T05:43:36.511Z,100537.16
2018-01-06T05:46:09.931Z,100538.98
2018-01-06T05:48:42.738Z,100543.64
2018-01-06T05:51:15.928Z,100549.69
2018-01-06T05:53:49.313Z,100558.80
2018-01-06T05:56:21.931Z,100563.80
2018-01-06T05:58:54.356Z,100578.69
2018-01-06T06:01:27.032Z,100573.53
2018-01-06T06:04:00.237Z,100568.43
2018-01-06T06:06:33.069Z,100574.22
2018-01-06T06:09:05.549Z,100574.92
2018-01-06T06:11:39.100Z,100571.37
2018-01-06T06:14:11.640Z,100574.34
2018-01-06T06:16:44.186Z,100566.39
2018-01-06T06:19:16.609Z,100567.46
2018-01-06T06:21:50.558Z,100572.86
2018-01-06T06:24:23.630Z,100569.61
2018-01-06T06:26:56.182Z,100570.23
2018-01-06T06:29:29.051Z,100577.17
2018-01-06T06:32:02.081Z,100574.53
2018-01-06T06:34:35.915Z,100579.91
2018-01-06T06:37:08.632Z,100579.14
2018-01-06T06:39:41.344Z,100578.67
2018-01-06T06:42:13.719Z,100576.53
2018-01-06T06:44:46.185Z,100565.17
2018-01-06T06:47:19.289Z,100570.69
2018-01-06T06:49:52.056Z,100578.05
2018-01-06T06:52:24.352Z,100583.69
2018-01-06T06:54:57.313Z,100574.09
2018-01-06T06:57:29.971Z,100581.80
2018-01-06T07:00:02.648Z,100603.45
2018-01-06T07:02:35.893Z,100603.14
2018-01-06T07:05:08.440Z,100607.49
2018-01-06T07:07:40.793Z,100612.93
2018-01-06T07:10:13.953Z,100611.53
2018-01-06T07:12:46.577Z,100609.76
2018-01-06T07:15:19.195Z,100611.95
2018-01-06T07:17:52.368Z,100610.66
2018-01-06T07:20:25.232Z,100617.73
2018-01-06T07:22:57.594Z,100621.83
2018-01-06T07:25:30.928Z,100619.48
2018-01-06T07:28:04.346Z,100637.52
2018-01-06T07:30:37.179Z,100649.58
2018-01-06T07:33:09.695Z,100648.24
2018-01-06T07:35:42.158Z,100657.39
2018-01-06T07:38:14.856Z,100671.72
2018-01-06T07:40:47.523Z,100679.19
2018-01-06T07:43:19.911Z,100687.33
2018-01-06T07:45:52.490Z,100684.89
2018-01-06T07:48:24.912Z,100680.98
2018-01-06T07:50:57.304Z,100680.03
2018-01-06T07:53:30.343Z,100682.36
2018-01-06T07:56:03.031Z,100688.02
2018-01-06T07:58:35.433Z,100688.95
2018-01-06T08:01:08.699Z,100692.72
2018-01-06T08:03:41.929Z,100704.69
2018-01-06T08:06:14.425Z,100715.80
2018-01-06T08:08:46.917Z,100723.52
2018-01-06T08:11:19.397Z,100724.27
2018-01-06T08:13:51.952Z,100728.16
2018-01-06T08:16:25.797Z,100723.83
2018-01-06T08:18:58.957Z,100736.09
2018-01-06T08:21:31.500Z,100736.35
2018-01-06T08:24:04.037Z,100746.78
2018-01-06T08:26:36.500Z,100748.91
2018-01-06T08:29:09.216Z,100746.61
2018-01-06T08:31:41.777Z,100752.03
2018-01-06T08:34:14.508Z,100757.00
2018-01-06T08:36:47.154Z,100759.83
2018-01-06T08:39:19.616Z,100752.41
2018-01-06T08:41:52.822Z,100757.23
2018-01-06T08:44:25.506Z,100767.58
2018-01-06T08:46:58.441Z,100767.30
2018-01-06T08:49:31.007Z,100781.84
2018-01-06T08:52:03.604Z,100780.75
2018-01-06T08:54:36.064Z,100787.11
2018-01-06T08:57:08.844Z,100786.08
2018-01-06T08:59:41.320Z,100793.53
2018-01-06T09:02:15.088Z,100801.95
2018-01-06T09:04:47.532Z,100808.95
2018-01-06T09:07:21.168Z,100802.04
2018-01-06T09:09:54.652Z,100805.22
2018-01-06T09:12:28.297Z,100800.15
2018-01-06T09:15:00.979Z,100798.12
2018-01-06T09:17:33.363Z,100801.59
2018-01-06T09:20:06.025Z,100799.79
2018-01-06T09:22:38.628Z,100805.31
2018-01-06T09:25:11.933Z,100813.50
2018-01-06T09:27:44.529Z,100812.50
2018-01-06T09:30:17.304Z,100809.76
2018-01-06T09:32:49.720Z,100818.84
2018-01-06T09:35:23.765Z,100833.80
2018-01-06T09:37:57.225Z,100835.72
2018-01-06T09:40:29.849Z,100832.16
2018-01-06T09:43:03.099Z,100839.28
2018-01-06T09:45:35.744Z,100833.72
2018-01-06T09:48:08.232Z,100843.11
2018-01-06T09:50:40.569Z,100859.00
2018-01-06T09:53:13.061Z,100861.56
2018-01-06T09:55:45.430Z,100863.77
2018-01-06T09:58:18.824Z,100871.86
2018-01-06T10:00:51.524Z,100867.02
2018-01-06T10:03:25.681Z,100875.16
2018-01-06T10:05:58.341Z,100883.52
2018-01-06T10:08:30.801Z,100886.59
2018-01-06T10:11:03.200Z,100894.78
2018-01-06T10:13:35.770Z,100894.28
2018-01-06T10:16:08.197Z,100892.09
2018-01-06T10:18:41.504Z,100899.23
2018-01-06T10:21:14.729Z,100901.02
2018-01-06T10:23:47.298Z,100903.85
2018-01-06T10:26:19.739Z,100901.95
2018-01-06T10:28:52.103Z,100906.67
2018-01-06T10:31:24.567Z,100909.67
2018-01-06T10:33:57.029Z,100905.42
2018-01-06T10:36:29.429Z,100910.48
2018-01-06T10:39:03.287Z,100911.17
2018-01-06T10:41:36.630Z,100914.80
2018-01-06T10:44:09.333Z,100913.58
2018-01-06T10:46:42.589Z,100924.10
2018-01-06T10:49:15.484Z,100919.41
2018-01-06T10:51:49.664Z,100914.38
2018-01-06T10:54:22.371Z,100925.52
2018-01-06T10:56:54.784Z,100927.64
2018-01-06T10:59:27.970Z,100930.05
2018-01-06T11:02:06.488Z,100930.34
2018-01-06T11:04:39.645Z,100933.81
2018-01-06T11:07:12.408Z,100941.53
2018-01-06T11:09:45.816Z,100950.91
2018-01-06T11:12:19.076Z,100951.50
2018-01-06T11:14:51.617Z,100947.74
2018-01-06T11:17:29.539Z,100949.48
2018-01-06T11:20:03.110Z,100943.98
2018-01-06T11:22:36.051Z,100945.95
2018-01-06T11:25:09.678Z,100948.81
2018-01-06T11:27:44.100Z,100948.14
2018-01-06T11:30:16.563Z,100953.05
2018-01-06T11:32:49.203Z,100948.55
2018-01-06T11:35:22.433Z,100948.50
2018-01-06T11:37:55.388Z,100949.52
2018-01-06T11:40:28.621Z,100950.48
2018-01-06T11:43:01.484Z,100944.88
2018-01-06T11:45:33.973Z,100943.23
2018-01-06T11:48:08.113Z,100949.17
2018-01-06T11:50:41.598Z,100959.73
2018-01-06T11:53:15.080Z,100957.68
2018-01-06T11:55:48.392Z,100952.97
2018-01-06T11:58:21.444Z,100953.48
2018-01-06T12:00:53.854Z,100954.56
2018-01-06T12:03:26.629Z,100960.20
2018-01-06T12:05:59.098Z,100960.64
2018-01-06T12:08:31.593Z,100964.56
2018-01-06T12:11:04.362Z,100969.11
2018-01-06T12:13:36.961Z,100970.01
2018-01-06T12:16:09.601Z,100967.22
2018-01-06T12:19:11.128Z,100974.16
2018-01-06T12:21:44.342Z,100978.80
2018-01-06T12:24:17.035Z,100979.73
2018-01-06T12:26:50.550Z,100981.46
2018-01-06T12:29:24.148Z,100984.99
2018-01-06T12:31:56.836Z,100993.12
2018-01-06T12:34:30.105Z,100999.14
2018-01-06T12:37:02.790Z,101001.61
2018-01-06T12:39:35.377Z,101009.23
2018-01-06T12:42:07.888Z,101013.51
2018-01-06T12:44:40.467Z,101019.13
2018-01-06T12:47:12.975Z,101025.39
2018-01-06T12:49:45.963Z,101013.86
2018-01-06T12:52:19.214Z,101021.59
2018-01-06T12:54:52.702Z,101016.77
2018-01-06T12:57:29.452Z,101020.41
2018-01-06T13:00:03.047Z,101021.98
2018-01-06T13:02:35.957Z,101018.25
2018-01-06T13:05:08.642Z,101019.94
2018-01-06T13:07:41.304Z,101014.60
2018-01-06T13:10:15.454Z,101015.78
2018-01-06T13:12:48.789Z,101018.22
2018-01-06T13:15:21.397Z,101011.19
2018-01-06T13:17:55.148Z,101012.72
2018-01-06T13:20:35.088Z,101007.53
2018-01-06T13:23:08.460Z,100998.43
2018-01-06T13:25:41.589Z,100995.45
2018-01-06T13:28:16.273Z,101016.53
2018-01-06T13:30:50.337Z,101022.75
2018-01-06T13:33:22.676Z,101028.73
2018-01-06T13:35:55.396Z,101028.91
2018-01-06T13:38:27.869Z,101031.92
2018-01-06T13:41:00.599Z,101050.92
2018-01-06T13:43:33.249Z,101051.53
2018-01-06T13:46:06.928Z,101064.48
2018-01-06T13:48:40.455Z,101069.67
2018-01-06T13:51:13.743Z,101068.73
2018-01-06T13:53:46.264Z,101075.36
2018-01-06T13:56:19.060Z,101070.83
2018-01-06T13:58:51.771Z,101080.53
2018-01-06T14:01:24.669Z,101083.76
2018-01-06T14:03:57.360Z,101082.55
2018-01-06T14:06:30.049Z,101086.98
2018-01-06T14:09:02.729Z,101089.46
2018-01-06T14:11:36.895Z,101090.96
2018-01-06T14:14:09.265Z,101084.02
2018-01-06T14:16:41.856Z,101100.20
2018-01-06T14:19:15.306Z,101099.81
2018-01-06T14:24:52.066Z,101103.39
2018-01-06T14:27:24.551Z,101106.65
2018-01-06T14:29:57.955Z,101117.30
2018-01-06T14:32:31.211Z,101114.97
2018-01-06T14:35:04.784Z,101128.25
2018-01-06T14:37:37.648Z,101135.40
2018-01-06T14:40:10.241Z,101139.53
2018-01-06T14:42:42.997Z,101141.92
2018-01-06T14:45:16.592Z,101141.30
2018-01-06T14:47:49.249Z,101138.50
2018-01-06T14:50:22.618Z,101143.22
2018-01-06T14:52:56.437Z,101146.63
2018-01-06T14:55:29.169Z,101150.09
2018-01-06T14:58:02.288Z,101150.12
2018-01-06T15:00:34.958Z,101149.17
2018-01-06T15:03:07.942Z,101146.25
2018-01-06T15:05:40.609Z,101154.11
2018-01-06T15:08:13.742Z,101157.00
2018-01-06T15:10:47.001Z,101161.16
2018-01-06T15:13:20.142Z,101158.48
2018-01-06T15:15:53.709Z,101168.40
2018-01-06T15:18:27.427Z,101170.42
2018-01-06T15:21:00.395Z,101174.50
2018-01-06T15:23:34.097Z,101177.42
2018-01-06T15:26:07.161Z,101180.08
2018-01-06T15:28:39.861Z,101184.42
2018-01-06T15:31:12.829Z,101179.39
2018-01-06T15:33:45.828Z,101186.83
2018-01-06T15:36:18.370Z,101187.85
2018-01-06T15:38:52.237Z,101185.48
2018-01-06T15:41:26.295Z,101190.13
2018-01-06T15:43:59.140Z,101191.55
2018-01-06T15:46:31.549Z,101206.87
2018-01-06T15:49:05.033Z,101204.16
2018-01-06T15:51:37.908Z,101212.85
2018-01-06T15:54:10.589Z,101211.67
2018-01-06T15:56:43.257Z,101227.89
2018-01-06T15:59:15.823Z,101232.12
2018-01-06T16:01:48.271Z,101231.64
2018-01-06T16:04:20.781Z,101235.26
2018-01-06T16:10:01.937Z,101260.32
2018-01-06T16:12:34.937Z,101258.39
2018-01-06T16:15:08.288Z,101267.30
2018-01-06T16:17:41.997Z,101275.30
2018-01-06T16:20:15.184Z,101268.36
2018-01-06T16:22:47.993Z,101268.70
2018-01-06T16:25:20.623Z,101270.12
2018-01-06T16:27:53.970Z,101275.23
2018-01-06T16:30:26.798Z,101281.57
2018-01-06T16:33:00.024Z,101287.81
2018-01-06T16:35:33.943Z,101294.52
2018-01-06T16:38:07.704Z,101291.91
2018-01-06T16:40:41.068Z,101297.16
2018-01-06T16:43:15.111Z,101313.14
2018-01-06T16:45:47.763Z,101319.66
2018-01-06T16:48:20.093Z,101322.80
2018-01-06T16:50:52.572Z,101328.33
2018-01-06T16:53:26.562Z,101330.82
2018-01-06T16:55:59.359Z,101332.71
2018-01-06T16:58:31.881Z,101339.52
2018-01-06T17:01:04.358Z,101346.33
2018-01-06T17:03:36.807Z,101350.40
2018-01-06T17:06:10.788Z,101351.17
2018-01-06T17:08:43.893Z,101348.45
2018-01-06T17:11:18.007Z,101349.12
2018-01-06T17:13:51.249Z,101347.21
2018-01-06T17:16:23.843Z,101360.35
2018-01-06T17:18:57.212Z,101356.83
2018-01-06T17:21:30.017Z,101362.58
2018-01-06T17:24:02.951Z,101358.96
2018-01-06T17:26:36.736Z,101365.00
2018-01-06T17:29:09.385Z,101374.25
2018-01-06T17:31:41.925Z,101387.77
2018-01-06T17:34:14.411Z,101392.60
2018-01-06T17:36:46.882Z,101390.63
2018-01-06T17:39:19.972Z,101391.73
2018-01-06T17:41:53.397Z,101406.13
2018-01-06T17:44:30.093Z,101412.27
2018-01-06T17:47:02.993Z,101409.20
2018-01-06T17:49:35.462Z,101411.30
2018-01-06T17:52:07.912Z,101409.81
2018-01-06T17:54:40.390Z,101422.02
2018-01-06T17:57:13.880Z,101424.44
2018-01-06T17:59:46.525Z,101439.95
2018-01-06T18:02:18.867Z,101444.09
2018-01-06T18:04:51.274Z,101456.90
2018-01-06T18:07:24.354Z,101466.55
2018-01-06T18:09:58.693Z,101468.66
2018-01-06T18:12:31.483Z,101467.25
2018-01-06T18:15:04.742Z,101465.62
2018-01-06T18:17:38.364Z,101471.98
2018-01-06T18:20:10.989Z,101480.20
2018-01-06T18:22:43.511Z,101492.27
2018-01-06T18:25:16.098Z,101492.20
2018-01-06T18:27:48.625Z,101500.93
2018-01-06T18:30:21.961Z,101496.61
2018-01-06T18:32:54.401Z,101496.90
2018-01-06T18:35:26.946Z,101506.31
2018-01-06T18:38:00.089Z,101515.33
2018-01-06T18:40:32.840Z,101522.00
2018-01-06T18:43:05.309Z,101521.13
2018-01-06T18:45:37.976Z,101530.08
2018-01-06T18:48:11.930Z,101537.58
2018-01-06T18:50:44.617Z,101543.14
2018-01-06T18:53:17.001Z,101551.87
2018-01-06T18:55:49.530Z,101555.66
2018-01-06T18:58:22.338Z,101554.39
2018-01-06T19:00:55.522Z,101559.73
2018-01-06T19:03:28.385Z,101563.82
2018-01-06T19:06:02.452Z,101582.02
2018-01-06T19:08:35.628Z,101580.09
2018-01-06T19:11:09.008Z,101578.08
2018-01-06T19:13:42.472Z,101571.33
2018-01-06T19:16:16.313Z,101580.16
2018-01-06T19:18:49.651Z,101579.50
2018-01-06T19:21:22.096Z,101583.86
2018-01-06T19:23:54.672Z,101586.09
2018-01-06T19:26:27.139Z,101591.02
2018-01-06T19:28:59.553Z,101601.00
2018-01-06T19:31:32.920Z,101607.69
2018-01-06T19:34:05.712Z,101612.14
2018-01-06T19:36:38.443Z,101609.08
2018-01-06T19:39:11.080Z,101614.18
2018-01-06T19:41:43.812Z,101616.11
2018-01-06T19:44:17.189Z,101615.00
2018-01-06T19:46:49.912Z,101628.66
2018-01-06T19:49:22.648Z,101639.27
2018-01-06T19:51:55.150Z,101654.17
2018-01-06T19:54:27.871Z,101658.36
2018-01-06T19:57:00.270Z,101659.52
2018-01-06T19:59:33.452Z,101663.16
2018-01-06T20:02:06.381Z,101668.00
2018-01-06T20:04:39.282Z,101679.94
2018-01-06T20:07:17.450Z,101684.09
2018-01-06T20:09:49.956Z,101691.73
2018-01-06T20:12:22.516Z,101694.98
2018-01-06T20:14:55.155Z,101697.05
2018-01-06T20:17:27.797Z,101705.39
2018-01-06T20:20:00.757Z,101710.31
2018-01-06T20:22:34.238Z,101712.70
2018-01-06T20:25:07.035Z,101717.60
2018-01-06T20:27:39.783Z,101715.28
2018-01-06T20:30:12.453Z,101723.53
2018-01-06T20:32:45.143Z,101733.89
2018-01-06T20:35:17.811Z,101738.20
2018-01-06T20:37:50.490Z,101740.72
2018-01-06T20:40:23.094Z,101750.28
2018-01-06T20:42:55.605Z,101753.39
2018-01-06T20:45:29.405Z,101757.08
2018-01-06T20:48:02.666Z,101754.11
2018-01-06T20:50:35.600Z,101757.83
2018-01-06T20:53:08.391Z,101759.70
2018-01-06T20:55:40.810Z,101764.25
2018-01-06T20:58:13.409Z,101766.70
2018-01-06T21:00:46.086Z,101775.40
2018-01-06T21:03:19.100Z,101781.33
2018-01-06T21:05:53.206Z,101786.01
2018-01-06T21:08:27.013Z,101784.61
2018-01-06T21:10:59.473Z,101792.69
2018-01-06T21:13:32.853Z,101785.90
2018-01-06T21:16:06.238Z,101787.62
2018-01-06T21:18:39.017Z,101795.44
2018-01-06T21:21:11.627Z,101800.07
2018-01-06T21:23:44.264Z,101801.25
2018-01-06T21:26:17.397Z,101792.20
2018-01-06T21:28:49.902Z,101793.77
2018-01-06T21:31:22.511Z,101792.53
2018-01-06T21:33:55.157Z,101798.59
2018-01-06T21:36:28.055Z,101806.24
2018-01-06T21:39:01.016Z,101807.42
2018-01-06T21:41:33.912Z,101811.84
2018-01-06T21:44:06.292Z,101814.22
2018-01-06T21:46:39.171Z,101825.16
2018-01-06T21:49:11.835Z,101824.22
2018-01-06T21:51:46.083Z,101832.08
2018-01-06T21:54:19.926Z,101846.00
2018-01-06T21:56:52.726Z,101849.82
2018-01-06T21:59:25.340Z,101855.41
2018-01-06T22:01:57.876Z,101853.45
2018-01-06T22:04:30.394Z,101858.82
2018-01-06T22:07:03.013Z,101862.03
2018-01-06T22:09:36.446Z,101871.00
2018-01-06T22:12:08.960Z,101870.03
2018-01-06T22:14:41.328Z,101879.07
2018-01-06T22:17:13.937Z,101885.05
2018-01-06T22:19:46.555Z,101887.57
2018-01-06T22:22:19.901Z,101892.91
2018-01-06T22:24:52.474Z,101898.67
2018-01-06T22:27:24.843Z,101901.01
2018-01-06T22:29:58.131Z,101897.20
2018-01-06T22:32:30.621Z,101903.02
2018-01-06T22:35:03.850Z,101903.20
2018-01-06T22:37:36.624Z,101900.30
2018-01-06T22:40:09.890Z,101908.07
2018-01-06T22:42:42.863Z,101914.94
2018-01-06T22:45:15.203Z,101914.39
2018-01-06T22:47:47.724Z,101915.86
2018-01-06T22:50:20.216Z,101917.22
2018-01-06T22:52:52.703Z,101919.38
2018-01-06T22:55:25.330Z,101916.01
2018-01-06T22:57:57.865Z,101922.27
2018-01-06T23:00:35.286Z,101927.24
2018-01-06T23:03:07.826Z,101930.52
2018-01-06T23:05:40.981Z,101931.72
2018-01-06T23:08:13.355Z,101935.27
2018-01-06T23:10:45.858Z,101938.13
2018-01-06T23:13:19.974Z,101946.94
2018-01-06T23:15:52.892Z,101943.95
2018-01-06T23:18:26.821Z,101941.98
2018-01-06T23:20:59.611Z,101953.39
2018-01-06T23:23:32.216Z,101949.45
2018-01-06T23:26:05.658Z,101951.45
2018-01-06T23:28:38.164Z,101952.98
2018-01-06T23:31:10.873Z,101959.47
2018-01-06T23:33:43.365Z,101967.79
2018-01-06T23:36:16.248Z,101967.62
2018-01-06T23:38:48.902Z,101969.19
2018-01-06T23:41:22.166Z,101975.70
2018-01-06T23:43:55.979Z,101973.78
2018-01-06T23:46:29.854Z,101984.18
2018-01-06T23:49:03.029Z,101990.09
2018-01-06T23:51:35.885Z,101987.25
2018-01-06T23:54:08.663Z,102000.06
2018-01-06T23:56:41.272Z,101997.64
2018-01-06T23:59:14.600Z,102006.81
